This is the latest recevied weather packets stored in our database for station/object SV2RIM-2. If no packets are shown the sender has not sent any weather packets the latest 10 day(s).
| Time | Temp. | Humidity | Pressure | Rain* | Wind** | Luminosity | Snow |
|---|---|---|---|---|---|---|---|
| 1777635319 | 13.89° C | 50% | 1021.1 hPa | 4.32 mm | - | - | - |
| 1777634719 | 13.33° C | 52% | 1021.1 hPa | 4.32 mm | - | - | - |
| 1777634119 | 13.33° C | 54% | 1021 hPa | 4.32 mm | - | - | - |
| 1777633519 | 14.44° C | 54% | 1021 hPa | 4.32 mm | - | - | - |
| 1777632919 | 15° C | 53% | 1020.9 hPa | 4.32 mm | - | - | - |
| 1777632319 | 15.56° C | 52% | 1020.9 hPa | 4.32 mm | - | - | - |
| 1777631719 | 15.56° C | 53% | 1020.9 hPa | 4.32 mm | - | - | - |
| 1777631119 | 16.67° C | 51% | 1020.9 hPa | 4.32 mm | - | - | - |
| 1777630519 | 17.78° C | 48% | 1020.9 hPa | 4.32 mm | - | - | - |
| 1777629919 | 17.22° C | 48% | 1020.8 hPa | 4.32 mm | - | - | - |
| 1777629319 | 15.56° C | 53% | 1020.9 hPa | 4.32 mm | - | - | - |
| 1777628719 | 15.56° C | 54% | 1021 hPa | 4.32 mm | - | - | - |
| 1777628119 | 16.11° C | 52% | 1021 hPa | 4.32 mm | - | - | - |
| 1777627519 | 17.22° C | 48% | 1020.9 hPa | 4.32 mm | - | - | - |
| 1777626919 | 17.78° C | 46% | 1020.9 hPa | 4.32 mm | - | - | - |
| 1777626319 | 16.11° C | 49% | 1020.9 hPa | 4.32 mm | - | - | - |
| 1777625719 | 16.67° C | 48% | 1020.9 hPa | 4.32 mm | - | - | - |
| 1777625119 | 16.11° C | 48% | 1021 hPa | 4.32 mm | - | - | - |
| 1777624519 | 17.22° C | 45% | 1021.1 hPa | 4.32 mm | - | - | - |
| 1777623919 | 15.56° C | 48% | 1021 hPa | 4.32 mm | - | - | - |
| 1777623319 | 13.89° C | 52% | 1021 hPa | 4.32 mm | - | - | - |
| 1777622719 | 16.67° C | 44% | 1021 hPa | 4.32 mm | - | - | - |
| 1777622119 | 15° C | 46% | 1021 hPa | 4.32 mm | - | - | - |
| 1777621519 | 13.89° C | 49% | 1021 hPa | 4.32 mm | - | - | - |
| 1777620919 | 15° C | 45% | 1021 hPa | 4.32 mm | - | - | - |
* Rain latest 24 hours (hover to see other rain measurements)
** Current wind speed in m/s (hover to see current wind gust speed)